Time,TemperatureF,DewpointF,PressureIn,WindDirection,WindDirectionDegrees,WindSpeedMPH,WindSpeedGustMPH,Humidity,HourlyPrecipIn,Conditions,Clouds,dailyrainin,SoftwareType,DateUTC
2013-02-04 00:00:00,51.8,51.0,30.08,ENE,68,1.0,4.0,97,0.00,,---,0.00,VWS V14.01,2013-02-04 08:00:00,
2013-02-04 00:30:00,52.2,51.7,30.08,ENE,68,1.0,3.0,98,0.00,,---,0.00,VWS V14.01,2013-02-04 08:30:00,
2013-02-04 01:00:00,51.8,51.0,30.08,ENE,68,1.0,5.0,97,0.00,,---,0.00,VWS V14.01,2013-02-04 09:00:00,
2013-02-04 01:30:00,51.1,50.3,30.08,East,90,1.0,3.0,97,0.00,,---,0.00,VWS V14.01,2013-02-04 09:30:00,
2013-02-04 02:00:00,50.6,49.8,30.08,East,90,1.0,3.0,97,0.00,,---,0.00,VWS V14.01,2013-02-04 10:00:00,
2013-02-04 02:30:00,49.4,48.6,30.07,East,90,1.0,3.0,97,0.00,,---,0.00,VWS V14.01,2013-02-04 10:30:00,
2013-02-04 03:00:00,48.6,47.8,30.08,East,90,1.0,3.0,97,0.00,,---,0.00,VWS V14.01,2013-02-04 11:00:00,
2013-02-04 03:30:00,50.0,49.7,30.08,ENE,68,2.0,5.0,99,0.00,,---,0.00,VWS V14.01,2013-02-04 11:30:00,
2013-02-04 04:00:00,50.6,50.3,30.08,NE,45,0.0,3.0,99,0.00,,---,0.00,VWS V14.01,2013-02-04 12:00:00,
2013-02-04 04:30:00,51.5,51.2,30.08,NE,45,1.0,3.0,99,0.00,,---,0.00,VWS V14.01,2013-02-04 12:30:00,
2013-02-04 05:00:00,52.2,51.9,30.08,NE,45,0.0,2.0,99,0.00,,---,0.00,VWS V14.01,2013-02-04 13:00:00,
2013-02-04 05:30:00,53.2,52.9,30.07,NE,45,1.0,3.0,99,0.00,,---,0.00,VWS V14.01,2013-02-04 13:30:00,
2013-02-04 06:00:00,53.4,53.1,30.07,NE,45,0.0,3.0,99,0.00,,---,0.00,VWS V14.01,2013-02-04 14:00:00,
2013-02-04 06:30:00,54.1,53.8,30.09,ESE,112,1.0,3.0,99,0.00,,---,0.00,VWS V14.01,2013-02-04 14:30:00,
2013-02-04 07:00:00,54.0,53.7,30.09,ENE,68,0.0,3.0,99,0.00,,---,0.00,VWS V14.01,2013-02-04 15:00:00,
2013-02-04 07:30:00,54.2,53.9,30.10,ENE,68,1.0,5.0,99,0.00,,---,0.00,VWS V14.01,2013-02-04 15:30:00,
2013-02-04 08:00:00,54.2,53.9,30.11,SSE,158,1.0,5.0,99,0.00,,---,0.00,VWS V14.01,2013-02-04 16:00:00,
2013-02-04 08:30:00,54.6,54.3,30.12,SSE,158,0.0,3.0,99,0.00,,---,0.00,VWS V14.01,2013-02-04 16:30:00,
2013-02-04 09:00:00,55.0,54.7,30.13,SSE,158,1.0,6.0,99,0.00,,---,0.00,VWS V14.01,2013-02-04 17:00:00,
2013-02-04 09:30:00,55.6,55.0,30.14,SSE,158,1.0,6.0,98,0.00,,---,0.00,VWS V14.01,2013-02-04 17:30:00,
2013-02-04 10:00:00,56.4,55.3,30.14,South,180,2.0,5.0,96,0.00,,---,0.00,VWS V14.01,2013-02-04 18:00:00,
2013-02-04 10:30:00,57.8,55.8,30.14,SSW,202,2.0,7.0,93,0.00,,---,0.00,VWS V14.01,2013-02-04 18:30:00,
2013-02-04 11:00:00,59.5,55.6,30.13,SSW,202,3.0,7.0,87,0.00,,---,0.00,VWS V14.01,2013-02-04 19:00:00,
2013-02-04 11:30:00,62.1,56.5,30.12,South,180,5.0,9.0,82,0.00,,---,0.00,VWS V14.01,2013-02-04 19:30:00,
2013-02-04 12:00:00,63.2,56.6,30.11,SSW,202,4.0,9.0,79,0.00,,---,0.00,VWS V14.01,2013-02-04 20:00:00,
2013-02-04 12:30:00,63.3,56.3,30.09,SSE,158,5.0,10.0,78,0.00,,---,0.00,VWS V14.01,2013-02-04 20:30:00,
2013-02-04 13:00:00,63.9,56.6,30.07,South,180,6.0,13.0,77,0.00,,---,0.00,VWS V14.01,2013-02-04 21:00:00,
2013-02-04 13:30:00,63.2,55.9,30.06,SSW,202,6.0,13.0,77,0.00,,---,0.00,VWS V14.01,2013-02-04 21:30:00,
2013-02-04 14:00:00,62.1,56.2,30.05,South,180,6.0,12.0,81,0.00,,---,0.00,VWS V14.01,2013-02-04 22:00:00,
2013-02-04 14:30:00,61.8,55.2,30.04,SSW,202,7.0,13.0,79,0.00,,---,0.00,VWS V14.01,2013-02-04 22:30:00,
2013-02-04 15:00:00,60.5,54.7,30.03,South,180,8.0,15.0,81,0.00,,---,0.00,VWS V14.01,2013-02-04 23:00:00,
2013-02-04 15:30:00,59.3,54.8,30.03,SSE,158,6.0,12.0,85,0.00,,---,0.00,VWS V14.01,2013-02-04 23:30:00,
2013-02-04 16:00:00,57.0,54.4,30.02,SE,146,2.0,8.0,91,0.00,,---,0.00,VWS V14.01,2013-02-05 00:00:00,
2013-02-04 16:29:00,58.1,54.6,30.02,South,169,4.0,10.0,88,0.00,,---,0.00,VWS V14.01,2013-02-05 00:29:00,
2013-02-04 16:30:00,56.3,54.0,30.02,SSE,156,0.0,6.0,92,0.00,,---,0.00,VWS V14.01,2013-02-05 00:30:00,
2013-02-04 16:59:00,57.0,54.4,30.02,SE,146,2.0,8.0,91,0.00,,---,0.00,VWS V14.01,2013-02-05 00:59:00,
2013-02-04 17:00:00,57.0,54.4,30.02,SE,146,2.0,8.0,91,0.00,,---,0.00,VWS V14.01,2013-02-05 01:00:00,
2013-02-04 17:29:00,56.3,54.0,30.02,SSE,156,0.0,6.0,92,0.00,,---,0.00,VWS V14.01,2013-02-05 01:29:00,
2013-02-04 17:30:00,56.3,54.0,30.02,SSE,156,0.0,6.0,92,0.00,,---,0.00,VWS V14.01,2013-02-05 01:30:00,
2013-02-04 17:59:00,55.4,53.4,30.02,SSE,158,2.0,3.0,93,0.00,,---,0.00,VWS V14.01,2013-02-05 01:59:00,
2013-02-04 18:00:00,55.4,53.4,30.02,SSE,158,2.0,3.0,93,0.00,,---,0.00,VWS V14.01,2013-02-05 02:00:00,
2013-02-04 18:29:00,54.6,52.9,30.03,SSE,156,0.0,4.0,94,0.00,,---,0.00,VWS V14.01,2013-02-05 02:29:00,
2013-02-04 18:30:00,54.6,52.9,30.03,SSE,156,0.0,4.0,94,0.00,,---,0.00,VWS V14.01,2013-02-05 02:30:00,
2013-02-04 18:59:00,54.2,52.8,30.05,West,271,2.0,3.0,95,0.00,,---,0.00,VWS V14.01,2013-02-05 02:59:00,
2013-02-04 19:00:00,54.2,52.8,30.05,West,271,2.0,3.0,95,0.00,,---,0.00,VWS V14.01,2013-02-05 03:00:00,
2013-02-04 20:00:00,53.8,53.0,30.10,West,275,0.0,2.0,97,0.00,,---,0.00,VWS V14.01,2013-02-05 04:00:00,
2013-02-04 20:29:00,53.0,52.2,30.10,West,269,0.0,4.0,97,0.00,,---,0.00,VWS V14.01,2013-02-05 04:29:00,
2013-02-04 20:30:00,53.0,52.2,30.10,West,269,0.0,4.0,97,0.00,,---,0.00,VWS V14.01,2013-02-05 04:30:00,
2013-02-04 20:59:00,53.8,53.0,30.10,West,275,0.0,2.0,97,0.00,,---,0.00,VWS V14.01,2013-02-05 04:59:00,
2013-02-04 21:00:00,53.8,53.0,30.10,West,275,0.0,2.0,97,0.00,,---,0.00,VWS V14.01,2013-02-05 05:00:00,
2013-02-04 21:30:00,54.5,53.4,30.11,West,270,1.0,3.0,96,0.00,,---,0.00,VWS V14.01,2013-02-05 05:30:00,
2013-02-04 22:00:00,54.7,53.6,30.11,SE,135,2.0,5.0,96,0.00,,---,0.00,VWS V14.01,2013-02-05 06:00:00,
2013-02-04 22:30:00,54.8,53.4,30.11,SE,135,2.0,5.0,95,0.00,,---,0.00,VWS V14.01,2013-02-05 06:30:00,
2013-02-04 23:00:00,54.9,53.2,30.11,SE,135,1.0,3.0,94,0.00,,---,0.00,VWS V14.01,2013-02-05 07:00:00,
2013-02-04 23:30:00,55.0,53.3,30.11,SE,135,0.0,2.0,94,0.00,,---,0.00,VWS V14.01,2013-02-05 07:30:00,